sensor_id;sensor_type;location;lat;lon;timestamp;pressure;altitude;pressure_sealevel;temperature;humidity
64713;BME280;51140;45.340;5.980;2023-02-13T00:01:33;99747.84;;;0.76;100.00
64713;BME280;51140;45.340;5.980;2023-02-13T00:03:59;99756.38;;;0.75;100.00
64713;BME280;51140;45.340;5.980;2023-02-13T00:06:24;99752.91;;;0.71;100.00
64713;BME280;51140;45.340;5.980;2023-02-13T00:08:50;99762.25;;;0.66;100.00
64713;BME280;51140;45.340;5.980;2023-02-13T00:11:16;99767.41;;;0.68;100.00
64713;BME280;51140;45.340;5.980;2023-02-13T00:13:41;99772.44;;;0.61;100.00
64713;BME280;51140;45.340;5.980;2023-02-13T00:16:06;99759.53;;;0.54;100.00
64713;BME280;51140;45.340;5.980;2023-02-13T00:18:34;99770.56;;;0.48;100.00
64713;BME280;51140;45.340;5.980;2023-02-13T00:21:09;99769.72;;;0.49;100.00
64713;BME280;51140;45.340;5.980;2023-02-13T00:23:35;99772.09;;;0.39;100.00
64713;BME280;51140;45.340;5.980;2023-02-13T00:26:09;99783.16;;;0.35;100.00
64713;BME280;51140;45.340;5.980;2023-02-13T00:28:35;99779.63;;;0.26;100.00
64713;BME280;51140;45.340;5.980;2023-02-13T00:31:05;99789.03;;;0.27;100.00
64713;BME280;51140;45.340;5.980;2023-02-13T00:33:31;99804.34;;;0.23;100.00
64713;BME280;51140;45.340;5.980;2023-02-13T00:38:30;99804.97;;;0.10;100.00
64713;BME280;51140;45.340;5.980;2023-02-13T00:40:55;99812.78;;;0.16;100.00
64713;BME280;51140;45.340;5.980;2023-02-13T00:43:20;99809.50;;;0.26;100.00
64713;BME280;51140;45.340;5.980;2023-02-13T00:45:46;99807.00;;;0.30;100.00
64713;BME280;51140;45.340;5.980;2023-02-13T00:48:11;99821.47;;;0.25;100.00
64713;BME280;51140;45.340;5.980;2023-02-13T00:50:37;99812.13;;;0.29;100.00
64713;BME280;51140;45.340;5.980;2023-02-13T00:53:02;99822.34;;;0.27;100.00
64713;BME280;51140;45.340;5.980;2023-02-13T00:55:27;99816.34;;;0.25;100.00
64713;BME280;51140;45.340;5.980;2023-02-13T00:57:53;99822.25;;;0.21;100.00
64713;BME280;51140;45.340;5.980;2023-02-13T01:00:18;99822.28;;;0.23;100.00
64713;BME280;51140;45.340;5.980;2023-02-13T01:02:44;99827.44;;;0.24;100.00
64713;BME280;51140;45.340;5.980;2023-02-13T01:05:09;99821.44;;;0.24;100.00
64713;BME280;51140;45.340;5.980;2023-02-13T01:07:34;99819.00;;;0.31;100.00
64713;BME280;51140;45.340;5.980;2023-02-13T01:10:00;99822.38;;;0.29;100.00
64713;BME280;51140;45.340;5.980;2023-02-13T01:12:25;99823.28;;;0.32;100.00
64713;BME280;51140;45.340;5.980;2023-02-13T01:14:51;99790.09;;;0.40;100.00
64713;BME280;51140;45.340;5.980;2023-02-13T01:17:16;99805.50;;;0.42;100.00
64713;BME280;51140;45.340;5.980;2023-02-13T01:19:42;99800.41;;;0.43;100.00
64713;BME280;51140;45.340;5.980;2023-02-13T01:22:08;99797.03;;;0.46;100.00
64713;BME280;51140;45.340;5.980;2023-02-13T01:24:33;99792.72;;;0.45;100.00
64713;BME280;51140;45.340;5.980;2023-02-13T01:26:59;99796.09;;;0.41;100.00
64713;BME280;51140;45.340;5.980;2023-02-13T01:29:26;99808.94;;;0.42;100.00
64713;BME280;51140;45.340;5.980;2023-02-13T01:31:52;99810.44;;;0.31;100.00
64713;BME280;51140;45.340;5.980;2023-02-13T01:34:17;99815.59;;;0.32;100.00
64713;BME280;51140;45.340;5.980;2023-02-13T01:36:43;99820.63;;;0.26;100.00
64713;BME280;51140;45.340;5.980;2023-02-13T01:39:10;99831.75;;;0.27;100.00
64713;BME280;51140;45.340;5.980;2023-02-13T01:41:36;99830.72;;;0.17;100.00
64713;BME280;51140;45.340;5.980;2023-02-13T01:44:02;99839.88;;;0.02;100.00
64713;BME280;51140;45.340;5.980;2023-02-13T01:46:36;99839.13;;;0.09;100.00
64713;BME280;51140;45.340;5.980;2023-02-13T01:49:08;99851.16;;;0.13;100.00
64713;BME280;51140;45.340;5.980;2023-02-13T01:51:35;99858.84;;;0.13;100.00
64713;BME280;51140;45.340;5.980;2023-02-13T01:54:16;99860.56;;;0.14;100.00
64713;BME280;51140;45.340;5.980;2023-02-13T01:56:47;99868.22;;;0.12;100.00
64713;BME280;51140;45.340;5.980;2023-02-13T01:59:42;99867.44;;;0.16;100.00
64713;BME280;51140;45.340;5.980;2023-02-13T02:02:09;99864.88;;;0.16;100.00
64713;BME280;51140;45.340;5.980;2023-02-13T02:04:36;99869.84;;;0.07;100.00
64713;BME280;51140;45.340;5.980;2023-02-13T02:07:25;99874.94;;;0.04;100.00
64713;BME280;51140;45.340;5.980;2023-02-13T02:09:58;99876.56;;;0.01;100.00
64713;BME280;51140;45.340;5.980;2023-02-13T02:12:35;99881.56;;;-0.06;100.00
64713;BME280;51140;45.340;5.980;2023-02-13T02:15:03;99886.72;;;-0.03;100.00
64713;BME280;51140;45.340;5.980;2023-02-13T02:17:29;99904.59;;;-0.07;100.00
64713;BME280;51140;45.340;5.980;2023-02-13T02:20:44;99902.06;;;-0.04;100.00
64713;BME280;51140;45.340;5.980;2023-02-13T02:37:21;99879.03;;;-0.03;100.00
64713;BME280;51140;45.340;5.980;2023-02-13T02:48:29;99910.72;;;-0.41;100.00
64713;BME280;51140;45.340;5.980;2023-02-13T02:51:26;99923.63;;;-0.38;100.00
64713;BME280;51140;45.340;5.980;2023-02-13T02:54:08;99935.50;;;-0.40;100.00
64713;BME280;51140;45.340;5.980;2023-02-13T02:57:02;99942.03;;;-0.54;100.00
64713;BME280;51140;45.340;5.980;2023-02-13T02:59:28;99947.69;;;-0.69;100.00
64713;BME280;51140;45.340;5.980;2023-02-13T03:02:14;99961.34;;;-0.69;100.00
64713;BME280;51140;45.340;5.980;2023-02-13T03:05:28;99976.88;;;-0.61;100.00
64713;BME280;51140;45.340;5.980;2023-02-13T03:08:33;99986.03;;;-0.72;100.00
64713;BME280;51140;45.340;5.980;2023-02-13T03:11:17;99996.34;;;-0.68;100.00
64713;BME280;51140;45.340;5.980;2023-02-13T03:14:03;100000.63;;;-0.68;100.00
64713;BME280;51140;45.340;5.980;2023-02-13T03:16:31;99994.50;;;-0.75;100.00
64713;BME280;51140;45.340;5.980;2023-02-13T03:22:36;100002.63;;;-0.53;100.00
64713;BME280;51140;45.340;5.980;2023-02-13T03:25:25;100004.16;;;-0.61;100.00
64713;BME280;51140;45.340;5.980;2023-02-13T03:28:24;100009.19;;;-0.66;100.00
64713;BME280;51140;45.340;5.980;2023-02-13T03:31:26;99999.53;;;-0.78;100.00
64713;BME280;51140;45.340;5.980;2023-02-13T03:33:57;99997.72;;;-0.82;100.00
64713;BME280;51140;45.340;5.980;2023-02-13T03:39:48;99994.56;;;-0.72;100.00
64713;BME280;51140;45.340;5.980;2023-02-13T03:42:26;100005.66;;;-0.71;100.00
64713;BME280;51140;45.340;5.980;2023-02-13T03:45:02;100016.03;;;-0.65;100.00
64713;BME280;51140;45.340;5.980;2023-02-13T03:47:51;100023.69;;;-0.67;100.00
64713;BME280;51140;45.340;5.980;2023-02-13T03:50:18;100022.09;;;-0.61;100.00
64713;BME280;51140;45.340;5.980;2023-02-13T03:52:54;100033.00;;;-0.69;100.00
64713;BME280;51140;45.340;5.980;2023-02-13T03:55:24;100025.56;;;-0.58;100.00
64713;BME280;51140;45.340;5.980;2023-02-13T03:58:31;100016.53;;;-0.42;100.00
64713;BME280;51140;45.340;5.980;2023-02-13T04:01:21;100019.78;;;-0.49;100.00
64713;BME280;51140;45.340;5.980;2023-02-13T04:03:51;100034.41;;;-0.44;100.00
64713;BME280;51140;45.340;5.980;2023-02-13T04:06:46;100025.00;;;-0.45;100.00
64713;BME280;51140;45.340;5.980;2023-02-13T04:09:10;100032.53;;;-0.52;100.00
64713;BME280;51140;45.340;5.980;2023-02-13T04:14:27;100040.53;;;-0.39;100.00
64713;BME280;51140;45.340;5.980;2023-02-13T04:17:38;100036.41;;;-0.32;100.00
64713;BME280;51140;45.340;5.980;2023-02-13T04:20:01;100040.78;;;-0.28;100.00
64713;BME280;51140;45.340;5.980;2023-02-13T04:22:26;100038.06;;;-0.34;100.00
64713;BME280;51140;45.340;5.980;2023-02-13T04:24:52;100029.28;;;-0.45;100.00
64713;BME280;51140;45.340;5.980;2023-02-13T04:27:17;100022.41;;;-0.46;100.00
64713;BME280;51140;45.340;5.980;2023-02-13T04:29:43;100012.31;;;-0.40;100.00
64713;BME280;51140;45.340;5.980;2023-02-13T04:32:11;100008.19;;;-0.35;100.00
64713;BME280;51140;45.340;5.980;2023-02-13T04:34:38;100006.41;;;-0.38;100.00
64713;BME280;51140;45.340;5.980;2023-02-13T04:37:03;100000.34;;;-0.41;100.00
64713;BME280;51140;45.340;5.980;2023-02-13T04:39:29;99999.47;;;-0.42;100.00
64713;BME280;51140;45.340;5.980;2023-02-13T04:41:54;100003.59;;;-0.48;100.00
64713;BME280;51140;45.340;5.980;2023-02-13T04:44:19;99998.53;;;-0.45;100.00
64713;BME280;51140;45.340;5.980;2023-02-13T04:46:45;100004.50;;;-0.46;100.00
64713;BME280;51140;45.340;5.980;2023-02-13T04:49:10;100012.91;;;-0.52;100.00
64713;BME280;51140;45.340;5.980;2023-02-13T04:51:36;100009.28;;;-0.61;100.00
64713;BME280;51140;45.340;5.980;2023-02-13T04:54:01;100021.94;;;-0.68;100.00
64713;BME280;51140;45.340;5.980;2023-02-13T04:56:27;100024.44;;;-0.71;100.00
64713;BME280;51140;45.340;5.980;2023-02-13T04:58:53;100036.38;;;-0.71;100.00
64713;BME280;51140;45.340;5.980;2023-02-13T05:01:19;100028.72;;;-0.70;100.00
64713;BME280;51140;45.340;5.980;2023-02-13T05:03:44;100037.97;;;-0.76;100.00
64713;BME280;51140;45.340;5.980;2023-02-13T05:06:10;100013.50;;;-0.64;100.00
64713;BME280;51140;45.340;5.980;2023-02-13T05:08:35;100023.47;;;-0.76;100.00
64713;BME280;51140;45.340;5.980;2023-02-13T05:11:01;100025.31;;;-1.05;100.00
64713;BME280;51140;45.340;5.980;2023-02-13T05:13:26;100035.28;;;-1.15;100.00
64713;BME280;51140;45.340;5.980;2023-02-13T05:15:52;100037.66;;;-1.21;100.00
64713;BME280;51140;45.340;5.980;2023-02-13T05:18:18;100054.97;;;-1.13;100.00
64713;BME280;51140;45.340;5.980;2023-02-13T05:20:43;100061.72;;;-1.15;100.00
64713;BME280;51140;45.340;5.980;2023-02-13T05:23:13;100072.78;;;-1.16;100.00
64713;BME280;51140;45.340;5.980;2023-02-13T05:25:48;100073.22;;;-1.31;100.00
64713;BME280;51140;45.340;5.980;2023-02-13T05:28:14;100087.91;;;-1.55;100.00
64713;BME280;51140;45.340;5.980;2023-02-13T05:30:58;100097.84;;;-1.64;100.00
64713;BME280;51140;45.340;5.980;2023-02-13T05:33:24;100091.53;;;-1.77;100.00
64713;BME280;51140;45.340;5.980;2023-02-13T05:35:50;100086.00;;;-1.92;100.00
64713;BME280;51140;45.340;5.980;2023-02-13T05:38:15;100097.72;;;-1.99;100.00
64713;BME280;51140;45.340;5.980;2023-02-13T05:40:40;100123.56;;;-1.88;100.00
64713;BME280;51140;45.340;5.980;2023-02-13T05:43:06;100132.59;;;-1.71;100.00
64713;BME280;51140;45.340;5.980;2023-02-13T05:45:31;100141.91;;;-1.73;100.00
64713;BME280;51140;45.340;5.980;2023-02-13T05:47:57;100155.53;;;-1.72;100.00
64713;BME280;51140;45.340;5.980;2023-02-13T05:50:22;100161.91;;;-1.60;100.00
64713;BME280;51140;45.340;5.980;2023-02-13T05:52:47;100153.84;;;-1.43;100.00
64713;BME280;51140;45.340;5.980;2023-02-13T05:55:13;100154.88;;;-1.37;100.00
64713;BME280;51140;45.340;5.980;2023-02-13T05:57:38;100162.53;;;-1.37;100.00
64713;BME280;51140;45.340;5.980;2023-02-13T06:00:04;100154.50;;;-1.50;100.00
64713;BME280;51140;45.340;5.980;2023-02-13T06:02:30;100168.09;;;-1.51;100.00
64713;BME280;51140;45.340;5.980;2023-02-13T06:04:55;100167.28;;;-1.50;100.00
64713;BME280;51140;45.340;5.980;2023-02-13T06:07:21;100185.34;;;-1.44;100.00
64713;BME280;51140;45.340;5.980;2023-02-13T06:09:46;100195.72;;;-1.38;100.00
64713;BME280;51140;45.340;5.980;2023-02-13T06:12:11;100187.94;;;-1.43;100.00
64713;BME280;51140;45.340;5.980;2023-02-13T06:14:37;100191.09;;;-1.51;100.00
64713;BME280;51140;45.340;5.980;2023-02-13T06:17:02;100195.91;;;-1.61;100.00
64713;BME280;51140;45.340;5.980;2023-02-13T06:19:27;100196.22;;;-1.51;100.00
64713;BME280;51140;45.340;5.980;2023-02-13T06:21:53;100197.38;;;-1.40;100.00
64713;BME280;51140;45.340;5.980;2023-02-13T06:24:18;100207.22;;;-1.54;100.00
64713;BME280;51140;45.340;5.980;2023-02-13T06:26:43;100201.97;;;-1.59;100.00
64713;BME280;51140;45.340;5.980;2023-02-13T06:29:09;100199.88;;;-1.70;100.00
64713;BME280;51140;45.340;5.980;2023-02-13T06:31:35;100203.25;;;-1.71;100.00
64713;BME280;51140;45.340;5.980;2023-02-13T06:34:00;100211.09;;;-1.65;100.00
64713;BME280;51140;45.340;5.980;2023-02-13T06:36:26;100222.59;;;-1.52;100.00
64713;BME280;51140;45.340;5.980;2023-02-13T06:38:51;100226.19;;;-1.46;100.00
64713;BME280;51140;45.340;5.980;2023-02-13T06:41:17;100225.56;;;-1.66;100.00
64713;BME280;51140;45.340;5.980;2023-02-13T06:43:43;100224.53;;;-1.72;100.00
64713;BME280;51140;45.340;5.980;2023-02-13T06:46:08;100224.28;;;-1.80;100.00
64713;BME280;51140;45.340;5.980;2023-02-13T06:48:34;100242.91;;;-1.57;100.00
64713;BME280;51140;45.340;5.980;2023-02-13T06:51:00;100251.09;;;-1.39;100.00
64713;BME280;51140;45.340;5.980;2023-02-13T06:53:28;100254.34;;;-1.44;100.00
64713;BME280;51140;45.340;5.980;2023-02-13T06:55:54;100240.81;;;-1.69;100.00
64713;BME280;51140;45.340;5.980;2023-02-13T06:58:21;100241.63;;;-1.70;100.00
64713;BME280;51140;45.340;5.980;2023-02-13T07:00:47;100234.78;;;-1.71;100.00
64713;BME280;51140;45.340;5.980;2023-02-13T07:03:12;100245.19;;;-1.65;100.00
64713;BME280;51140;45.340;5.980;2023-02-13T07:05:39;100261.75;;;-1.53;100.00
64713;BME280;51140;45.340;5.980;2023-02-13T07:08:05;100266.31;;;-1.43;100.00
64713;BME280;51140;45.340;5.980;2023-02-13T07:10:31;100278.50;;;-1.35;100.00
64713;BME280;51140;45.340;5.980;2023-02-13T07:12:56;100272.41;;;-1.38;100.00
64713;BME280;51140;45.340;5.980;2023-02-13T07:15:22;100272.69;;;-1.29;100.00
64713;BME280;51140;45.340;5.980;2023-02-13T07:17:47;100266.19;;;-1.19;100.00
64713;BME280;51140;45.340;5.980;2023-02-13T07:20:12;100267.31;;;-1.10;100.00
64713;BME280;51140;45.340;5.980;2023-02-13T07:22:38;100259.16;;;-1.25;100.00
64713;BME280;51140;45.340;5.980;2023-02-13T07:25:03;100258.56;;;-1.18;100.00
64713;BME280;51140;45.340;5.980;2023-02-13T07:27:29;100251.19;;;-1.07;100.00
64713;BME280;51140;45.340;5.980;2023-02-13T07:29:55;100236.41;;;-1.17;100.00
64713;BME280;51140;45.340;5.980;2023-02-13T07:32:22;100218.22;;;-1.27;100.00
64713;BME280;51140;45.340;5.980;2023-02-13T07:34:48;100216.03;;;-1.14;100.00
64713;BME280;51140;45.340;5.980;2023-02-13T07:37:13;100217.72;;;-1.15;100.00
64713;BME280;51140;45.340;5.980;2023-02-13T07:39:39;100222.97;;;-1.10;100.00
64713;BME280;51140;45.340;5.980;2023-02-13T07:42:05;100226.47;;;-1.07;100.00
64713;BME280;51140;45.340;5.980;2023-02-13T07:44:31;100234.34;;;-0.99;100.00
64713;BME280;51140;45.340;5.980;2023-02-13T07:46:57;100243.13;;;-0.89;100.00
64713;BME280;51140;45.340;5.980;2023-02-13T07:49:22;100230.69;;;-0.77;100.00
64713;BME280;51140;45.340;5.980;2023-02-13T07:51:47;100221.38;;;-0.75;100.00
64713;BME280;51140;45.340;5.980;2023-02-13T07:54:13;100229.06;;;-0.75;100.00
64713;BME280;51140;45.340;5.980;2023-02-13T07:56:38;100208.09;;;-0.60;100.00
64713;BME280;51140;45.340;5.980;2023-02-13T07:59:03;100197.94;;;-0.57;100.00
64713;BME280;51140;45.340;5.980;2023-02-13T08:01:29;100199.47;;;-0.64;100.00
64713;BME280;51140;45.340;5.980;2023-02-13T08:03:54;100200.31;;;-0.65;100.00
64713;BME280;51140;45.340;5.980;2023-02-13T08:06:20;100190.78;;;-0.71;100.00
64713;BME280;51140;45.340;5.980;2023-02-13T08:08:46;100182.31;;;-0.68;100.00
64713;BME280;51140;45.340;5.980;2023-02-13T08:11:23;100174.72;;;-0.65;100.00
64713;BME280;51140;45.340;5.980;2023-02-13T08:14:08;100179.88;;;-0.64;100.00
64713;BME280;51140;45.340;5.980;2023-02-13T08:16:34;100179.19;;;-0.56;100.00
64713;BME280;51140;45.340;5.980;2023-02-13T08:18:59;100177.16;;;-0.70;100.00
64713;BME280;51140;45.340;5.980;2023-02-13T08:21:24;100178.63;;;-0.79;100.00
64713;BME280;51140;45.340;5.980;2023-02-13T08:23:50;100166.88;;;-0.71;100.00
64713;BME280;51140;45.340;5.980;2023-02-13T08:26:16;100161.25;;;-0.58;100.00
64713;BME280;51140;45.340;5.980;2023-02-13T08:28:41;100164.75;;;-0.54;100.00
64713;BME280;51140;45.340;5.980;2023-02-13T08:31:10;100169.09;;;-0.50;100.00
64713;BME280;51140;45.340;5.980;2023-02-13T08:33:36;100170.88;;;-0.48;100.00
64713;BME280;51140;45.340;5.980;2023-02-13T08:36:02;100164.31;;;-0.38;100.00
64713;BME280;51140;45.340;5.980;2023-02-13T08:38:28;100155.03;;;-0.33;100.00
64713;BME280;51140;45.340;5.980;2023-02-13T08:40:57;100152.63;;;-0.27;100.00
64713;BME280;51140;45.340;5.980;2023-02-13T08:43:23;100162.91;;;-0.25;100.00
64713;BME280;51140;45.340;5.980;2023-02-13T08:45:48;100166.44;;;-0.20;100.00
64713;BME280;51140;45.340;5.980;2023-02-13T08:48:14;100160.50;;;-0.18;100.00
64713;BME280;51140;45.340;5.980;2023-02-13T08:50:39;100160.69;;;-0.10;100.00
64713;BME280;51140;45.340;5.980;2023-02-13T08:53:05;100161.63;;;-0.07;100.00
64713;BME280;51140;45.340;5.980;2023-02-13T08:55:30;100147.69;;;-0.18;100.00
64713;BME280;51140;45.340;5.980;2023-02-13T08:58:00;100154.63;;;-0.14;100.00
64713;BME280;51140;45.340;5.980;2023-02-13T09:00:26;100158.75;;;-0.20;100.00
64713;BME280;51140;45.340;5.980;2023-02-13T09:02:52;100156.00;;;-0.28;100.00
64713;BME280;51140;45.340;5.980;2023-02-13T09:05:17;100159.66;;;-0.18;100.00
64713;BME280;51140;45.340;5.980;2023-02-13T09:07:43;100156.34;;;-0.13;100.00
64713;BME280;51140;45.340;5.980;2023-02-13T09:10:09;100159.25;;;0.01;100.00
64713;BME280;51140;45.340;5.980;2023-02-13T09:12:34;100156.78;;;0.06;100.00
64713;BME280;51140;45.340;5.980;2023-02-13T09:15:00;100155.03;;;0.03;100.00
64713;BME280;51140;45.340;5.980;2023-02-13T09:17:25;100158.50;;;0.05;100.00
64713;BME280;51140;45.340;5.980;2023-02-13T09:19:50;100147.56;;;0.14;100.00
64713;BME280;51140;45.340;5.980;2023-02-13T09:22:16;100151.94;;;0.18;100.00
64713;BME280;51140;45.340;5.980;2023-02-13T09:24:41;100154.59;;;0.22;100.00
64713;BME280;51140;45.340;5.980;2023-02-13T09:27:07;100160.53;;;0.20;100.00
64713;BME280;51140;45.340;5.980;2023-02-13T09:29:33;100151.28;;;0.28;100.00
64713;BME280;51140;45.340;5.980;2023-02-13T09:31:58;100150.59;;;0.35;100.00
64713;BME280;51140;45.340;5.980;2023-02-13T09:34:24;100152.44;;;0.41;100.00
64713;BME280;51140;45.340;5.980;2023-02-13T09:36:53;100125.09;;;0.41;100.00
64713;BME280;51140;45.340;5.980;2023-02-13T09:39:18;100113.31;;;0.49;100.00
64713;BME280;51140;45.340;5.980;2023-02-13T09:41:46;100108.34;;;0.58;100.00
64713;BME280;51140;45.340;5.980;2023-02-13T09:44:22;100093.81;;;0.59;100.00
64713;BME280;51140;45.340;5.980;2023-02-13T09:49:57;100056.06;;;0.99;100.00
64713;BME280;51140;45.340;5.980;2023-02-13T09:52:27;100031.66;;;1.20;100.00
64713;BME280;51140;45.340;5.980;2023-02-13T09:54:56;100012.88;;;1.24;100.00
64713;BME280;51140;45.340;5.980;2023-02-13T09:57:29;99990.75;;;1.33;100.00
64713;BME280;51140;45.340;5.980;2023-02-13T10:00:11;99967.09;;;1.55;100.00
64713;BME280;51140;45.340;5.980;2023-02-13T10:05:33;99920.81;;;2.26;100.00
64713;BME280;51140;45.340;5.980;2023-02-13T10:10:52;99835.81;;;3.29;100.00
64713;BME280;51140;45.340;5.980;2023-02-13T10:16:26;99673.13;;;5.32;100.00
64713;BME280;51140;45.340;5.980;2023-02-13T10:18:57;99610.50;;;6.08;100.00
64713;BME280;51140;45.340;5.980;2023-02-13T10:21:33;99590.25;;;6.45;100.00
64713;BME280;51140;45.340;5.980;2023-02-13T10:24:13;99588.69;;;6.98;100.00
64713;BME280;51140;45.340;5.980;2023-02-13T10:26:45;99603.63;;;7.39;100.00
64713;BME280;51140;45.340;5.980;2023-02-13T10:29:16;99615.34;;;7.63;100.00
64713;BME280;51140;45.340;5.980;2023-02-13T10:32:09;99636.22;;;8.06;100.00
64713;BME280;51140;45.340;5.980;2023-02-13T10:34:42;99643.50;;;8.35;100.00
64713;BME280;51140;45.340;5.980;2023-02-13T10:37:16;99663.03;;;8.56;100.00
64713;BME280;51140;45.340;5.980;2023-02-13T10:39:50;99679.28;;;8.66;100.00
64713;BME280;51140;45.340;5.980;2023-02-13T10:51:16;99724.94;;;9.22;100.00
64713;BME280;51140;45.340;5.980;2023-02-13T10:56:17;99698.69;;;9.33;100.00
64713;BME280;51140;45.340;5.980;2023-02-13T11:04:16;99716.91;;;9.33;100.00
64713;BME280;51140;45.340;5.980;2023-02-13T11:06:50;99679.72;;;8.88;100.00
64713;BME280;51140;45.340;5.980;2023-02-13T11:09:16;99706.91;;;9.13;100.00
64713;BME280;51140;45.340;5.980;2023-02-13T11:11:42;99724.81;;;9.28;100.00
64713;BME280;51140;45.340;5.980;2023-02-13T11:14:22;99741.44;;;9.21;100.00
64713;BME280;51140;45.340;5.980;2023-02-13T11:17:01;99717.38;;;9.10;100.00
64713;BME280;51140;45.340;5.980;2023-02-13T11:19:28;99756.22;;;9.18;100.00
64713;BME280;51140;45.340;5.980;2023-02-13T11:21:59;99788.56;;;9.03;100.00
64713;BME280;51140;45.340;5.980;2023-02-13T11:24:26;99799.16;;;8.94;100.00
64713;BME280;51140;45.340;5.980;2023-02-13T11:26:58;99765.38;;;8.94;100.00
64713;BME280;51140;45.340;5.980;2023-02-13T11:29:25;99722.75;;;9.01;100.00
64713;BME280;51140;45.340;5.980;2023-02-13T11:34:29;99707.81;;;9.51;100.00
64713;BME280;51140;45.340;5.980;2023-02-13T11:37:16;99694.59;;;9.61;100.00
64713;BME280;51140;45.340;5.980;2023-02-13T11:39:43;99728.28;;;10.04;100.00
64713;BME280;51140;45.340;5.980;2023-02-13T11:42:16;99745.06;;;10.28;100.00
64713;BME280;51140;45.340;5.980;2023-02-13T11:44:49;99768.06;;;10.47;100.00
64713;BME280;51140;45.340;5.980;2023-02-13T11:47:15;99829.78;;;10.45;100.00
64713;BME280;51140;45.340;5.980;2023-02-13T11:49:45;99782.19;;;10.71;100.00
64713;BME280;51140;45.340;5.980;2023-02-13T11:52:27;99821.72;;;10.88;100.00
64713;BME280;51140;45.340;5.980;2023-02-13T11:55:32;99888.38;;;10.98;100.00
64713;BME280;51140;45.340;5.980;2023-02-13T11:58:17;99835.41;;;11.28;100.00
64713;BME280;51140;45.340;5.980;2023-02-13T12:00:45;99840.59;;;11.61;100.00
64713;BME280;51140;45.340;5.980;2023-02-13T12:06:21;99906.78;;;12.19;100.00
64713;BME280;51140;45.340;5.980;2023-02-13T12:08:48;99919.06;;;12.71;100.00
64713;BME280;51140;45.340;5.980;2023-02-13T12:14:04;99972.81;;;14.09;100.00
64713;BME280;51140;45.340;5.980;2023-02-13T12:16:34;100008.38;;;13.91;100.00
64713;BME280;51140;45.340;5.980;2023-02-13T12:19:05;100000.16;;;13.52;100.00
64713;BME280;51140;45.340;5.980;2023-02-13T12:22:01;100004.38;;;14.06;100.00
64713;BME280;51140;45.340;5.980;2023-02-13T12:27:13;100075.91;;;14.58;100.00
64713;BME280;51140;45.340;5.980;2023-02-13T12:32:52;100053.63;;;14.91;100.00
64713;BME280;51140;45.340;5.980;2023-02-13T12:38:26;100081.94;;;16.71;100.00
64713;BME280;51140;45.340;5.980;2023-02-13T12:41:13;100124.28;;;16.66;100.00
64713;BME280;51140;45.340;5.980;2023-02-13T12:44:13;100109.97;;;17.09;100.00
64713;BME280;51140;45.340;5.980;2023-02-13T13:00:35;99972.38;;;13.48;100.00
64713;BME280;51140;45.340;5.980;2023-02-13T13:06:09;99887.16;;;12.62;100.00
64713;BME280;51140;45.340;5.980;2023-02-13T13:11:46;99878.56;;;12.30;100.00
64713;BME280;51140;45.340;5.980;2023-02-13T13:14:30;99827.16;;;12.31;100.00
64713;BME280;51140;45.340;5.980;2023-02-13T13:22:32;99869.88;;;12.02;100.00
64713;BME280;51140;45.340;5.980;2023-02-13T13:25:22;99871.22;;;11.85;100.00
64713;BME280;51140;45.340;5.980;2023-02-13T13:27:54;99782.47;;;12.12;100.00
64713;BME280;51140;45.340;5.980;2023-02-13T13:30:28;99791.53;;;12.28;100.00
64713;BME280;51140;45.340;5.980;2023-02-13T13:33:14;99832.72;;;12.20;100.00
64713;BME280;51140;45.340;5.980;2023-02-13T13:35:44;99786.19;;;12.31;100.00
64713;BME280;51140;45.340;5.980;2023-02-13T13:50:16;99913.16;;;12.10;100.00
64713;BME280;51140;45.340;5.980;2023-02-13T13:53:04;99857.91;;;12.22;100.00
64713;BME280;51140;45.340;5.980;2023-02-13T14:01:23;99861.69;;;12.40;100.00
64713;BME280;51140;45.340;5.980;2023-02-13T14:04:03;99846.31;;;12.31;100.00
64713;BME280;51140;45.340;5.980;2023-02-13T14:11:52;99888.22;;;12.28;100.00
64713;BME280;51140;45.340;5.980;2023-02-13T14:16:53;99925.09;;;12.47;100.00
64713;BME280;51140;45.340;5.980;2023-02-13T14:21:52;99872.47;;;12.58;100.00
64713;BME280;51140;45.340;5.980;2023-02-13T14:24:19;99868.94;;;12.59;100.00
64713;BME280;51140;45.340;5.980;2023-02-13T14:26:52;99894.75;;;12.69;100.00
64713;BME280;51140;45.340;5.980;2023-02-13T14:29:28;99892.94;;;12.71;100.00
64713;BME280;51140;45.340;5.980;2023-02-13T14:32:01;99824.91;;;12.73;100.00
64713;BME280;51140;45.340;5.980;2023-02-13T14:34:30;99859.03;;;12.68;100.00
64713;BME280;51140;45.340;5.980;2023-02-13T14:37:14;99902.09;;;12.58;100.00
64713;BME280;51140;45.340;5.980;2023-02-13T14:42:46;99939.44;;;12.62;100.00
64713;BME280;51140;45.340;5.980;2023-02-13T14:45:17;99918.13;;;12.74;100.00
64713;BME280;51140;45.340;5.980;2023-02-13T14:47:48;99924.97;;;12.78;100.00
64713;BME280;51140;45.340;5.980;2023-02-13T14:50:33;99884.72;;;12.83;100.00
64713;BME280;51140;45.340;5.980;2023-02-13T14:53:15;99900.25;;;12.88;100.00
64713;BME280;51140;45.340;5.980;2023-02-13T14:55:42;99908.91;;;12.90;100.00
64713;BME280;51140;45.340;5.980;2023-02-13T14:58:15;99874.72;;;12.95;100.00
64713;BME280;51140;45.340;5.980;2023-02-13T15:03:53;99847.50;;;13.00;100.00
64713;BME280;51140;45.340;5.980;2023-02-13T15:06:26;99903.34;;;12.99;100.00
64713;BME280;51140;45.340;5.980;2023-02-13T15:08:53;99829.19;;;13.00;100.00
64713;BME280;51140;45.340;5.980;2023-02-13T15:11:39;99868.81;;;12.90;100.00
64713;BME280;51140;45.340;5.980;2023-02-13T15:16:58;99882.16;;;12.80;100.00
64713;BME280;51140;45.340;5.980;2023-02-13T15:19:26;99890.91;;;12.81;100.00
64713;BME280;51140;45.340;5.980;2023-02-13T15:21:58;99894.53;;;12.75;100.00
64713;BME280;51140;45.340;5.980;2023-02-13T15:24:25;99887.66;;;12.73;100.00
64713;BME280;51140;45.340;5.980;2023-02-13T15:26:58;99824.00;;;12.74;100.00
64713;BME280;51140;45.340;5.980;2023-02-13T15:29:25;99861.56;;;12.71;100.00